sensor_id;sensor_type;location;lat;lon;timestamp;pressure;altitude;pressure_sealevel;temperature;humidity
46291;BME280;32023;44.444;26.006;2023-03-22T00:02:21;100222.88;;;11.93;78.62
46291;BME280;32023;44.444;26.006;2023-03-22T00:04:47;100229.25;;;11.89;78.84
46291;BME280;32023;44.444;26.006;2023-03-22T00:07:14;100223.72;;;11.89;79.22
46291;BME280;32023;44.444;26.006;2023-03-22T00:09:40;100228.97;;;11.85;79.52
46291;BME280;32023;44.444;26.006;2023-03-22T00:12:14;100228.66;;;11.87;80.00
46291;BME280;32023;44.444;26.006;2023-03-22T00:14:41;100211.56;;;11.85;80.06
46291;BME280;32023;44.444;26.006;2023-03-22T00:17:07;100211.56;;;11.85;80.10
46291;BME280;32023;44.444;26.006;2023-03-22T00:19:34;100218.19;;;11.84;80.53
46291;BME280;32023;44.444;26.006;2023-03-22T00:22:00;100213.75;;;11.83;80.47
46291;BME280;32023;44.444;26.006;2023-03-22T00:24:26;100203.25;;;11.80;80.93
46291;BME280;32023;44.444;26.006;2023-03-22T00:26:52;100196.38;;;11.77;81.08
46291;BME280;32023;44.444;26.006;2023-03-22T00:29:18;100199.09;;;11.72;81.59
46291;BME280;32023;44.444;26.006;2023-03-22T00:31:52;100202.13;;;11.71;81.28
46291;BME280;32023;44.444;26.006;2023-03-22T00:34:20;100203.78;;;11.72;81.65
46291;BME280;32023;44.444;26.006;2023-03-22T00:36:46;100201.03;;;11.72;82.01
46291;BME280;32023;44.444;26.006;2023-03-22T00:39:13;100198.25;;;11.67;82.60
46291;BME280;32023;44.444;26.006;2023-03-22T00:44:13;100211.44;;;11.54;82.67
46291;BME280;32023;44.444;26.006;2023-03-22T00:46:40;100206.47;;;11.51;82.47
46291;BME280;32023;44.444;26.006;2023-03-22T00:49:06;100205.88;;;11.49;83.03
46291;BME280;32023;44.444;26.006;2023-03-22T00:54:01;100203.09;;;11.44;83.08
46291;BME280;32023;44.444;26.006;2023-03-22T00:56:28;100200.88;;;11.41;83.68
46291;BME280;32023;44.444;26.006;2023-03-22T00:58:54;100191.78;;;11.41;83.39
46291;BME280;32023;44.444;26.006;2023-03-22T01:01:20;100194.53;;;11.41;83.31
46291;BME280;32023;44.444;26.006;2023-03-22T01:03:46;100195.91;;;11.38;83.99
46291;BME280;32023;44.444;26.006;2023-03-22T01:06:15;100196.72;;;11.34;83.98
46291;BME280;32023;44.444;26.006;2023-03-22T01:08:41;100193.41;;;11.32;83.94
46291;BME280;32023;44.444;26.006;2023-03-22T01:11:08;100185.13;;;11.27;83.91
46291;BME280;32023;44.444;26.006;2023-03-22T01:13:35;100196.44;;;11.25;84.07
46291;BME280;32023;44.444;26.006;2023-03-22T01:16:04;100196.94;;;11.22;84.19
46291;BME280;32023;44.444;26.006;2023-03-22T01:18:31;100195.81;;;11.18;84.34
46291;BME280;32023;44.444;26.006;2023-03-22T01:20:57;100186.75;;;11.18;84.46
46291;BME280;32023;44.444;26.006;2023-03-22T01:23:24;100180.09;;;11.19;84.30
46291;BME280;32023;44.444;26.006;2023-03-22T01:28:19;100177.63;;;11.17;84.38
46291;BME280;32023;44.444;26.006;2023-03-22T01:30:45;100175.97;;;11.16;84.81
46291;BME280;32023;44.444;26.006;2023-03-22T01:33:11;100175.97;;;11.16;84.56
46291;BME280;32023;44.444;26.006;2023-03-22T01:35:37;100176.81;;;11.17;84.52
46291;BME280;32023;44.444;26.006;2023-03-22T01:38:04;100173.19;;;11.11;84.64
46291;BME280;32023;44.444;26.006;2023-03-22T01:40:31;100168.22;;;11.08;84.90
46291;BME280;32023;44.444;26.006;2023-03-22T01:42:57;100167.94;;;11.09;85.36
46291;BME280;32023;44.444;26.006;2023-03-22T01:48:13;100166.28;;;11.08;85.21
46291;BME280;32023;44.444;26.006;2023-03-22T01:50:41;100167.38;;;11.07;85.51
46291;BME280;32023;44.444;26.006;2023-03-22T01:53:09;100163.78;;;11.07;85.01
46291;BME280;32023;44.444;26.006;2023-03-22T01:55:39;100167.38;;;11.07;85.18
46291;BME280;32023;44.444;26.006;2023-03-22T01:58:09;100163.78;;;11.07;85.62
46291;BME280;32023;44.444;26.006;2023-03-22T02:00:35;100168.22;;;11.08;85.38
46291;BME280;32023;44.444;26.006;2023-03-22T02:03:01;100176.47;;;11.08;85.58
46291;BME280;32023;44.444;26.006;2023-03-22T02:05:29;100166.53;;;11.07;85.31
46291;BME280;32023;44.444;26.006;2023-03-22T02:07:56;100172.06;;;11.07;85.44
46291;BME280;32023;44.444;26.006;2023-03-22T02:10:23;100180.31;;;11.07;85.76
46291;BME280;32023;44.444;26.006;2023-03-22T02:12:57;100181.72;;;11.09;86.03
46291;BME280;32023;44.444;26.006;2023-03-22T02:15:28;100188.88;;;11.10;85.79
46291;BME280;32023;44.444;26.006;2023-03-22T02:28:51;100183.16;;;11.17;85.80
46291;BME280;32023;44.444;26.006;2023-03-22T02:31:36;100194.47;;;11.21;85.72
46291;BME280;32023;44.444;26.006;2023-03-22T02:49:55;100222.19;;;11.04;86.56
46291;BME280;32023;44.444;26.006;2023-03-22T02:52:42;100214.22;;;11.02;86.40
46291;BME280;32023;44.444;26.006;2023-03-22T02:55:16;100215.56;;;11.00;86.60
46291;BME280;32023;44.444;26.006;2023-03-22T02:57:56;100211.66;;;10.96;86.83
46291;BME280;32023;44.444;26.006;2023-03-22T03:00:26;100211.38;;;10.87;87.00
46291;BME280;32023;44.444;26.006;2023-03-22T03:02:55;100216.78;;;10.77;87.54
46291;BME280;32023;44.444;26.006;2023-03-22T03:05:22;100222.53;;;10.71;87.52
46291;BME280;32023;44.444;26.006;2023-03-22T03:07:51;100216.41;;;10.63;87.96
46291;BME280;32023;44.444;26.006;2023-03-22T03:10:19;100209.47;;;10.56;88.57
46291;BME280;32023;44.444;26.006;2023-03-22T03:12:47;100207.19;;;10.48;88.96
46291;BME280;32023;44.444;26.006;2023-03-22T03:15:25;100211.56;;;10.44;89.32
46291;BME280;32023;44.444;26.006;2023-03-22T03:18:09;100205.22;;;10.38;89.74
46291;BME280;32023;44.444;26.006;2023-03-22T03:29:18;100202.69;;;10.37;90.27
46291;BME280;32023;44.444;26.006;2023-03-22T03:31:51;100213.47;;;10.38;90.26
46291;BME280;32023;44.444;26.006;2023-03-22T03:34:26;100207.91;;;10.33;89.93
46291;BME280;32023;44.444;26.006;2023-03-22T03:36:59;100209.28;;;10.36;90.15
46291;BME280;32023;44.444;26.006;2023-03-22T03:39:29;100211.78;;;10.37;90.42
46291;BME280;32023;44.444;26.006;2023-03-22T03:41:56;100209.28;;;10.36;89.75
46291;BME280;32023;44.444;26.006;2023-03-22T03:44:24;100217.56;;;10.36;89.78
46291;BME280;32023;44.444;26.006;2023-03-22T03:46:51;100219.47;;;10.35;89.28
46291;BME280;32023;44.444;26.006;2023-03-22T03:49:18;100213.66;;;10.32;89.63
46291;BME280;32023;44.444;26.006;2023-03-22T03:51:47;100215.03;;;10.29;89.69
46291;BME280;32023;44.444;26.006;2023-03-22T03:54:18;100214.78;;;10.31;89.42
46291;BME280;32023;44.444;26.006;2023-03-22T03:56:47;100216.69;;;10.30;89.26
46291;BME280;32023;44.444;26.006;2023-03-22T03:59:15;100221.09;;;10.31;89.33
46291;BME280;32023;44.444;26.006;2023-03-22T04:01:46;100227.13;;;10.28;89.01
46291;BME280;32023;44.444;26.006;2023-03-22T04:04:16;100222.38;;;10.24;89.10
46291;BME280;32023;44.444;26.006;2023-03-22T04:06:45;100226.25;;;10.23;89.68
46291;BME280;32023;44.444;26.006;2023-03-22T04:09:11;100227.59;;;10.20;89.51
46291;BME280;32023;44.444;26.006;2023-03-22T04:11:37;100233.06;;;10.15;89.67
46291;BME280;32023;44.444;26.006;2023-03-22T04:14:03;100234.97;;;10.14;89.66
46291;BME280;32023;44.444;26.006;2023-03-22T04:16:30;100237.94;;;10.13;89.73
46291;BME280;32023;44.444;26.006;2023-03-22T04:18:56;100245.34;;;10.12;89.53
46291;BME280;32023;44.444;26.006;2023-03-22T04:21:22;100243.44;;;10.13;89.57
46291;BME280;32023;44.444;26.006;2023-03-22T04:23:50;100237.44;;;10.16;89.87
46291;BME280;32023;44.444;26.006;2023-03-22T04:26:17;100252.88;;;10.17;89.93
46291;BME280;32023;44.444;26.006;2023-03-22T04:28:43;100250.13;;;10.17;89.65
46291;BME280;32023;44.444;26.006;2023-03-22T04:31:11;100249.69;;;10.03;89.08
46291;BME280;32023;44.444;26.006;2023-03-22T04:33:40;100250.38;;;9.94;89.26
46291;BME280;32023;44.444;26.006;2023-03-22T04:36:14;100255.34;;;9.92;90.05
46291;BME280;32023;44.444;26.006;2023-03-22T04:38:44;100251.75;;;9.91;89.86
46291;BME280;32023;44.444;26.006;2023-03-22T04:41:10;100256.16;;;9.92;89.52
46291;BME280;32023;44.444;26.006;2023-03-22T04:43:37;100261.91;;;9.91;89.46
46291;BME280;32023;44.444;26.006;2023-03-22T04:46:06;100272.41;;;9.94;89.50
46291;BME280;32023;44.444;26.006;2023-03-22T04:48:38;100270.22;;;9.96;89.37
46291;BME280;32023;44.444;26.006;2023-03-22T04:51:05;100274.97;;;10.00;89.62
46291;BME280;32023;44.444;26.006;2023-03-22T04:53:37;100273.69;;;10.08;89.43
46291;BME280;32023;44.444;26.006;2023-03-22T04:56:08;100274.00;;;10.11;89.78
46291;BME280;32023;44.444;26.006;2023-03-22T04:58:35;100286.47;;;10.19;89.04
46291;BME280;32023;44.444;26.006;2023-03-22T05:01:02;100276.34;;;10.25;89.00
46291;BME280;32023;44.444;26.006;2023-03-22T05:03:28;100278.56;;;10.28;88.71
46291;BME280;32023;44.444;26.006;2023-03-22T05:05:58;100278.25;;;10.24;88.05
46291;BME280;32023;44.444;26.006;2023-03-22T05:08:39;100276.63;;;10.23;88.53
46291;BME280;32023;44.444;26.006;2023-03-22T05:11:12;100282.13;;;10.23;88.06
46291;BME280;32023;44.444;26.006;2023-03-22T05:13:39;100290.63;;;10.22;87.66
46291;BME280;32023;44.444;26.006;2023-03-22T05:16:06;100293.38;;;10.22;88.14
46291;BME280;32023;44.444;26.006;2023-03-22T05:18:34;100291.47;;;10.22;87.69
46291;BME280;32023;44.444;26.006;2023-03-22T05:21:10;100287.31;;;10.20;87.48
46291;BME280;32023;44.444;26.006;2023-03-22T05:23:38;100296.91;;;10.17;88.01
46291;BME280;32023;44.444;26.006;2023-03-22T05:26:05;100301.31;;;10.18;87.52
46291;BME280;32023;44.444;26.006;2023-03-22T05:28:51;100305.66;;;10.14;87.76
46291;BME280;32023;44.444;26.006;2023-03-22T05:31:18;100300.16;;;10.14;87.12
46291;BME280;32023;44.444;26.006;2023-03-22T05:33:47;100309.81;;;10.17;87.18
46291;BME280;32023;44.444;26.006;2023-03-22T05:36:26;100304.31;;;10.17;87.39
46291;BME280;32023;44.444;26.006;2023-03-22T05:38:54;100307.97;;;10.22;86.90
46291;BME280;32023;44.444;26.006;2023-03-22T05:41:21;100309.06;;;10.21;87.28
46291;BME280;32023;44.444;26.006;2023-03-22T05:43:50;100314.31;;;10.23;86.72
46291;BME280;32023;44.444;26.006;2023-03-22T05:46:19;100312.41;;;10.23;86.99
46291;BME280;32023;44.444;26.006;2023-03-22T05:48:46;100317.94;;;10.28;86.50
46291;BME280;32023;44.444;26.006;2023-03-22T05:51:13;100311.34;;;10.29;86.77
46291;BME280;32023;44.444;26.006;2023-03-22T05:53:43;100322.59;;;10.28;86.92
46291;BME280;32023;44.444;26.006;2023-03-22T05:56:12;100327.84;;;10.29;86.98
46291;BME280;32023;44.444;26.006;2023-03-22T06:01:21;100328.53;;;10.41;86.50
46291;BME280;32023;44.444;26.006;2023-03-22T06:09:47;100333.63;;;10.54;85.92
46291;BME280;32023;44.444;26.006;2023-03-22T06:12:15;100332.59;;;10.60;85.41
46291;BME280;32023;44.444;26.006;2023-03-22T06:14:55;100342.00;;;10.65;85.02
46291;BME280;32023;44.444;26.006;2023-03-22T06:17:30;100342.88;;;10.70;83.99
46291;BME280;32023;44.444;26.006;2023-03-22T06:20:05;100344.84;;;10.75;84.25
46291;BME280;32023;44.444;26.006;2023-03-22T06:22:45;100352.31;;;10.79;83.18
46291;BME280;32023;44.444;26.006;2023-03-22T06:25:18;100358.16;;;10.88;83.43
46291;BME280;32023;44.444;26.006;2023-03-22T06:27:56;100356.00;;;10.90;82.52
46291;BME280;32023;44.444;26.006;2023-03-22T06:39:32;100366.63;;;11.08;81.67
46291;BME280;32023;44.444;26.006;2023-03-22T06:41:58;100365.06;;;11.17;81.46
46291;BME280;32023;44.444;26.006;2023-03-22T06:44:27;100369.78;;;11.27;80.44
46291;BME280;32023;44.444;26.006;2023-03-22T06:47:03;100370.63;;;11.27;79.77
46291;BME280;32023;44.444;26.006;2023-03-22T06:49:34;100358.53;;;11.33;79.66
46291;BME280;32023;44.444;26.006;2023-03-22T06:54:36;100378.06;;;11.27;79.05
46291;BME280;32023;44.444;26.006;2023-03-22T06:57:04;100375.53;;;11.20;78.76
46291;BME280;32023;44.444;26.006;2023-03-22T06:59:30;100378.34;;;11.25;78.96
46291;BME280;32023;44.444;26.006;2023-03-22T07:01:58;100380.75;;;11.17;78.39
46291;BME280;32023;44.444;26.006;2023-03-22T07:04:31;100385.44;;;11.16;78.43
46291;BME280;32023;44.444;26.006;2023-03-22T07:07:01;100385.97;;;11.13;78.37
46291;BME280;32023;44.444;26.006;2023-03-22T07:09:28;100391.69;;;11.06;78.67
46291;BME280;32023;44.444;26.006;2023-03-22T07:11:57;100384.81;;;11.09;78.63
46291;BME280;32023;44.444;26.006;2023-03-22T07:14:23;100397.31;;;11.22;78.89
46291;BME280;32023;44.444;26.006;2023-03-22T07:16:52;100398.19;;;11.27;77.97
46291;BME280;32023;44.444;26.006;2023-03-22T07:19:18;100399.88;;;11.28;78.41
46291;BME280;32023;44.444;26.006;2023-03-22T07:21:44;100385.19;;;11.18;77.84
46291;BME280;32023;44.444;26.006;2023-03-22T07:24:13;100398.97;;;11.18;78.75
46291;BME280;32023;44.444;26.006;2023-03-22T07:26:42;100392.38;;;11.24;78.64
46291;BME280;32023;44.444;26.006;2023-03-22T07:29:15;100394.97;;;11.35;78.66
46291;BME280;32023;44.444;26.006;2023-03-22T07:31:44;100399.41;;;11.41;78.06
46291;BME280;32023;44.444;26.006;2023-03-22T07:34:11;100397.81;;;11.50;78.32
46291;BME280;32023;44.444;26.006;2023-03-22T07:36:41;100394.13;;;11.72;77.41
46291;BME280;32023;44.444;26.006;2023-03-22T07:39:07;100397.75;;;11.77;76.86
46291;BME280;32023;44.444;26.006;2023-03-22T07:41:36;100408.50;;;11.79;76.33
46291;BME280;32023;44.444;26.006;2023-03-22T07:46:56;100409.50;;;11.68;76.49
46291;BME280;32023;44.444;26.006;2023-03-22T07:49:25;100410.63;;;11.67;77.25
46291;BME280;32023;44.444;26.006;2023-03-22T07:51:52;100402.16;;;11.73;77.47
46291;BME280;32023;44.444;26.006;2023-03-22T07:54:19;100415.00;;;11.63;77.17
46291;BME280;32023;44.444;26.006;2023-03-22T07:56:48;100412.03;;;11.69;77.32
46291;BME280;32023;44.444;26.006;2023-03-22T07:59:15;100414.78;;;11.69;77.28
46291;BME280;32023;44.444;26.006;2023-03-22T08:01:53;100413.22;;;11.78;77.10
46291;BME280;32023;44.444;26.006;2023-03-22T08:04:39;100408.56;;;11.84;76.98
46291;BME280;32023;44.444;26.006;2023-03-22T08:09:46;100427.06;;;11.88;76.30
46291;BME280;32023;44.444;26.006;2023-03-22T08:12:31;100423.22;;;11.89;76.81
46291;BME280;32023;44.444;26.006;2023-03-22T08:17:49;100433.63;;;11.82;77.33
46291;BME280;32023;44.444;26.006;2023-03-22T08:20:28;100430.63;;;11.84;77.29
46291;BME280;32023;44.444;26.006;2023-03-22T08:25:47;100432.66;;;11.62;78.66
46291;BME280;32023;44.444;26.006;2023-03-22T08:31:11;100435.22;;;11.36;78.87
46291;BME280;32023;44.444;26.006;2023-03-22T08:33:43;100433.50;;;11.30;79.10
46291;BME280;32023;44.444;26.006;2023-03-22T08:36:16;100431.28;;;11.27;79.34
46291;BME280;32023;44.444;26.006;2023-03-22T08:38:46;100427.97;;;11.25;79.73
46291;BME280;32023;44.444;26.006;2023-03-22T08:41:12;100437.69;;;11.33;79.62
46291;BME280;32023;44.444;26.006;2023-03-22T08:43:43;100440.75;;;11.36;79.41
46291;BME280;32023;44.444;26.006;2023-03-22T08:46:09;100431.88;;;11.34;79.28
46291;BME280;32023;44.444;26.006;2023-03-22T08:48:38;100445.38;;;11.31;79.34
46291;BME280;32023;44.444;26.006;2023-03-22T08:51:06;100441.53;;;11.32;79.60
46291;BME280;32023;44.444;26.006;2023-03-22T08:53:38;100445.63;;;11.29;79.74
46291;BME280;32023;44.444;26.006;2023-03-22T08:56:07;100447.44;;;11.19;80.11
46291;BME280;32023;44.444;26.006;2023-03-22T08:58:50;100449.91;;;11.15;80.26
46291;BME280;32023;44.444;26.006;2023-03-22T09:01:23;100447.72;;;11.17;80.96
46291;BME280;32023;44.444;26.006;2023-03-22T09:03:51;100452.19;;;11.23;80.61
46291;BME280;32023;44.444;26.006;2023-03-22T09:06:19;100461.53;;;11.22;80.33
46291;BME280;32023;44.444;26.006;2023-03-22T09:08:46;100457.41;;;11.20;80.83
46291;BME280;32023;44.444;26.006;2023-03-22T09:11:13;100458.75;;;11.17;81.08
46291;BME280;32023;44.444;26.006;2023-03-22T09:13:40;100449.97;;;11.20;80.84
46291;BME280;32023;44.444;26.006;2023-03-22T09:22:17;100467.41;;;11.31;81.03
46291;BME280;32023;44.444;26.006;2023-03-22T09:24:52;100468.63;;;11.40;80.67
46291;BME280;32023;44.444;26.006;2023-03-22T09:27:21;100453.72;;;11.41;80.52
46291;BME280;32023;44.444;26.006;2023-03-22T09:36:17;100465.56;;;11.41;80.06
46291;BME280;32023;44.444;26.006;2023-03-22T09:41:59;100456.75;;;11.39;79.82
46291;BME280;32023;44.444;26.006;2023-03-22T09:47:15;100461.59;;;11.59;79.60
46291;BME280;32023;44.444;26.006;2023-03-22T09:49:44;100457.00;;;11.70;79.80
46291;BME280;32023;44.444;26.006;2023-03-22T10:20:22;100462.09;;;11.88;77.70
46291;BME280;32023;44.444;26.006;2023-03-22T10:25:59;100459.09;;;11.94;77.02
46291;BME280;32023;44.444;26.006;2023-03-22T10:28:42;100459.69;;;12.01;77.07
46291;BME280;32023;44.444;26.006;2023-03-22T10:31:20;100454.22;;;12.06;76.22
46291;BME280;32023;44.444;26.006;2023-03-22T10:33:55;100452.84;;;12.09;75.42
46291;BME280;32023;44.444;26.006;2023-03-22T10:36:30;100454.47;;;12.05;75.02
46291;BME280;32023;44.444;26.006;2023-03-22T10:41:48;100447.09;;;12.16;75.15
46291;BME280;32023;44.444;26.006;2023-03-22T10:44:15;100446.28;;;12.20;74.96
46291;BME280;32023;44.444;26.006;2023-03-22T10:46:45;100445.47;;;12.25;74.33
46291;BME280;32023;44.444;26.006;2023-03-22T10:49:26;100439.16;;;12.29;74.78
46291;BME280;32023;44.444;26.006;2023-03-22T10:55:02;100437.28;;;12.45;73.78
46291;BME280;32023;44.444;26.006;2023-03-22T11:09:11;100432.66;;;12.61;72.90
46291;BME280;32023;44.444;26.006;2023-03-22T11:11:44;100434.00;;;12.58;72.32
46291;BME280;32023;44.444;26.006;2023-03-22T11:14:35;100433.75;;;12.60;72.46
46291;BME280;32023;44.444;26.006;2023-03-22T11:19:40;100415.78;;;12.62;71.93
46291;BME280;32023;44.444;26.006;2023-03-22T11:27:37;100422.97;;;12.63;71.61
46291;BME280;32023;44.444;26.006;2023-03-22T11:36:44;100416.13;;;12.81;71.59
46291;BME280;32023;44.444;26.006;2023-03-22T11:39:32;100417.78;;;12.82;71.08
46291;BME280;32023;44.444;26.006;2023-03-22T11:42:15;100410.06;;;12.84;70.86
46291;BME280;32023;44.444;26.006;2023-03-22T11:53:45;100404.25;;;12.95;71.08
46291;BME280;32023;44.444;26.006;2023-03-22T12:20:44;100394.50;;;14.04;68.32
46291;BME280;32023;44.444;26.006;2023-03-22T12:26:34;100392.88;;;13.93;66.86
46291;BME280;32023;44.444;26.006;2023-03-22T12:29:05;100382.97;;;13.77;66.88
46291;BME280;32023;44.444;26.006;2023-03-22T12:31:36;100397.38;;;13.74;67.32
46291;BME280;32023;44.444;26.006;2023-03-22T12:37:39;100390.72;;;13.65;67.28
46291;BME280;32023;44.444;26.006;2023-03-22T12:46:09;100380.22;;;13.67;66.37
46291;BME280;32023;44.444;26.006;2023-03-22T12:49:01;100391.81;;;13.69;66.63
46291;BME280;32023;44.444;26.006;2023-03-22T12:51:30;100396.22;;;13.75;66.61
46291;BME280;32023;44.444;26.006;2023-03-22T12:54:31;100392.09;;;13.72;66.27
46291;BME280;32023;44.444;26.006;2023-03-22T12:57:51;100387.41;;;13.63;66.08
46291;BME280;32023;44.444;26.006;2023-03-22T13:00:37;100392.38;;;13.61;66.21
46291;BME280;32023;44.444;26.006;2023-03-22T13:03:27;100393.22;;;13.66;66.30
46291;BME280;32023;44.444;26.006;2023-03-22T13:06:27;100394.59;;;13.74;66.27
46291;BME280;32023;44.444;26.006;2023-03-22T13:09:33;100387.94;;;13.80;65.89
46291;BME280;32023;44.444;26.006;2023-03-22T13:17:49;100384.59;;;13.93;65.46
46291;BME280;32023;44.444;26.006;2023-03-22T13:20:32;100394.25;;;14.01;65.17
46291;BME280;32023;44.444;26.006;2023-03-22T13:31:58;100388.47;;;13.87;65.29
46291;BME280;32023;44.444;26.006;2023-03-22T13:37:09;100381.81;;;13.93;64.94
46291;BME280;32023;44.444;26.006;2023-03-22T13:39:39;100378.53;;;13.86;64.99
46291;BME280;32023;44.444;26.006;2023-03-22T13:42:17;100379.09;;;13.78;65.38
46291;BME280;32023;44.444;26.006;2023-03-22T13:57:15;100376.06;;;13.69;65.72
46291;BME280;32023;44.444;26.006;2023-03-22T14:03:13;100378.53;;;13.81;64.86
46291;BME280;32023;44.444;26.006;2023-03-22T14:05:41;100375.44;;;13.82;64.04
46291;BME280;32023;44.444;26.006;2023-03-22T14:20:16;100389.66;;;13.50;67.15
46291;BME280;32023;44.444;26.006;2023-03-22T15:26:22;100410.88;;;12.79;72.49
46291;BME280;32023;44.444;26.006;2023-03-22T16:22:50;100438.59;;;11.48;75.68
46291;BME280;32023;44.444;26.006;2023-03-22T16:33:46;100448.25;;;11.46;75.22
46291;BME280;32023;44.444;26.006;2023-03-22T16:42:21;100467.03;;;11.49;75.46
46291;BME280;32023;44.444;26.006;2023-03-22T16:44:55;100465.69;;;11.56;75.35
46291;BME280;32023;44.444;26.006;2023-03-22T16:47:24;100460.22;;;11.62;75.20
46291;BME280;32023;44.444;26.006;2023-03-22T16:49:59;100466.88;;;11.66;75.21
46291;BME280;32023;44.444;26.006;2023-03-22T16:55:25;100470.84;;;11.75;75.11
46291;BME280;32023;44.444;26.006;2023-03-22T16:58:06;100462.00;;;11.73;75.61
46291;BME280;32023;44.444;26.006;2023-03-22T17:06:15;100475.16;;;11.66;77.38
46291;BME280;32023;44.444;26.006;2023-03-22T17:09:01;100475.69;;;11.63;77.71
46291;BME280;32023;44.444;26.006;2023-03-22T17:11:35;100487.22;;;11.59;77.95
46291;BME280;32023;44.444;26.006;2023-03-22T17:14:04;100482.72;;;11.48;78.21
46291;BME280;32023;44.444;26.006;2023-03-22T17:16:33;100504.78;;;11.48;78.46
46291;BME280;32023;44.444;26.006;2023-03-22T17:19:33;100491.81;;;11.44;78.58
46291;BME280;32023;44.444;26.006;2023-03-22T17:25:04;100497.53;;;11.37;79.98
46291;BME280;32023;44.444;26.006;2023-03-22T17:27:33;100492.53;;;11.34;79.97
46291;BME280;32023;44.444;26.006;2023-03-22T17:30:05;100496.91;;;11.30;80.81
46291;BME280;32023;44.444;26.006;2023-03-22T17:32:48;100496.34;;;11.28;80.85
46291;BME280;32023;44.444;26.006;2023-03-22T17:35:40;100494.69;;;11.27;80.56
46291;BME280;32023;44.444;26.006;2023-03-22T17:38:15;100491.03;;;11.22;80.45
46291;BME280;32023;44.444;26.006;2023-03-22T17:40:43;100500.13;;;11.22;80.32
46291;BME280;32023;44.444;26.006;2023-03-22T17:43:11;100499.28;;;11.22;80.05
46291;BME280;32023;44.444;26.006;2023-03-22T17:45:37;100506.69;;;11.16;79.64
46291;BME280;32023;44.444;26.006;2023-03-22T17:48:09;100501.72;;;11.13;79.87
46291;BME280;32023;44.444;26.006;2023-03-22T17:50:47;100508.88;;;11.14;79.70
46291;BME280;32023;44.444;26.006;2023-03-22T17:53:18;100519.09;;;11.14;79.82
46291;BME280;32023;44.444;26.006;2023-03-22T17:55:54;100515.75;;;11.11;80.02
46291;BME280;32023;44.444;26.006;2023-03-22T17:58:26;100517.63;;;11.06;80.14
46291;BME280;32023;44.444;26.006;2023-03-22T18:01:05;100514.59;;;11.07;80.29
46291;BME280;32023;44.444;26.006;2023-03-22T18:06:31;100524.28;;;11.10;80.80
46291;BME280;32023;44.444;26.006;2023-03-22T18:09:11;100516.81;;;11.10;81.11
46291;BME280;32023;44.444;26.006;2023-03-22T18:14:50;100527.66;;;11.17;80.83
46291;BME280;32023;44.444;26.006;2023-03-22T18:17:34;100519.94;;;11.19;80.89
46291;BME280;32023;44.444;26.006;2023-03-22T18:20:21;100520.22;;;11.18;81.06
46291;BME280;32023;44.444;26.006;2023-03-22T18:22:57;100532.66;;;11.20;80.60
46291;BME280;32023;44.444;26.006;2023-03-22T18:25:23;100529.38;;;11.23;80.90
46291;BME280;32023;44.444;26.006;2023-03-22T18:27:56;100532.72;;;11.25;80.28
46291;BME280;32023;44.444;26.006;2023-03-22T18:34:00;100528.28;;;11.24;80.55
46291;BME280;32023;44.444;26.006;2023-03-22T18:45:34;100527.53;;;11.07;81.70
46291;BME280;32023;44.444;26.006;2023-03-22T18:48:04;100527.28;;;11.08;81.59
46291;BME280;32023;44.444;26.006;2023-03-22T18:51:09;100526.19;;;11.09;81.04
46291;BME280;32023;44.444;26.006;2023-03-22T18:53:44;100526.75;;;11.11;81.23
46291;BME280;32023;44.444;26.006;2023-03-22T18:56:13;100527.28;;;11.08;80.50
46291;BME280;32023;44.444;26.006;2023-03-22T19:04:49;100528.50;;;10.96;79.61
46291;BME280;32023;44.444;26.006;2023-03-22T19:13:54;100523.53;;;10.93;79.54
46291;BME280;32023;44.444;26.006;2023-03-22T19:16:39;100527.38;;;10.92;79.64
46291;BME280;32023;44.444;26.006;2023-03-22T19:19:15;100530.44;;;10.95;80.15
46291;BME280;32023;44.444;26.006;2023-03-22T19:21:44;100520.84;;;10.98;80.13
46291;BME280;32023;44.444;26.006;2023-03-22T19:24:18;100525.19;;;10.94;79.82
46291;BME280;32023;44.444;26.006;2023-03-22T19:48:18;100539.81;;;10.94;80.20
46291;BME280;32023;44.444;26.006;2023-03-22T19:56:09;100537.81;;;10.90;80.01
46291;BME280;32023;44.444;26.006;2023-03-22T19:58:39;100542.25;;;10.91;79.67
46291;BME280;32023;44.444;26.006;2023-03-22T20:01:13;100536.75;;;10.91;79.71
46291;BME280;32023;44.444;26.006;2023-03-22T20:03:39;100538.97;;;10.94;79.93
46291;BME280;32023;44.444;26.006;2023-03-22T20:06:19;100541.22;;;10.97;79.96
46291;BME280;32023;44.444;26.006;2023-03-22T20:09:05;100543.44;;;11.00;79.90
46291;BME280;32023;44.444;26.006;2023-03-22T20:11:33;100544.59;;;11.04;79.59
46291;BME280;32023;44.444;26.006;2023-03-22T20:14:13;100541.31;;;11.07;80.39
46291;BME280;32023;44.444;26.006;2023-03-22T20:22:13;100540.81;;;11.10;79.98
46291;BME280;32023;44.444;26.006;2023-03-22T20:24:50;100548.81;;;11.11;79.70
46291;BME280;32023;44.444;26.006;2023-03-22T20:27:17;100541.38;;;11.12;79.56
46291;BME280;32023;44.444;26.006;2023-03-22T20:29:51;100546.66;;;11.14;79.60
46291;BME280;32023;44.444;26.006;2023-03-22T20:32:27;100550.50;;;11.13;79.89
46291;BME280;32023;44.444;26.006;2023-03-22T20:34:53;100545.81;;;11.13;79.37
46291;BME280;32023;44.444;26.006;2023-03-22T20:37:21;100539.78;;;11.16;79.39
46291;BME280;32023;44.444;26.006;2023-03-22T20:42:49;100544.50;;;11.21;78.93
46291;BME280;32023;44.444;26.006;2023-03-22T20:45:15;100534.56;;;11.20;79.11
46291;BME280;32023;44.444;26.006;2023-03-22T20:47:42;100541.75;;;11.21;79.64